Kelly — WCX5127 — position and weather

sailwx.info

Track history (hours):
 
Tides and Currents Weather Stations Pressure Air Temp Water Temp Dewpoint Dewpoint Depression Visibility Wind Speed Wind Dir Waves Ship Positions

Kelly

Owner: INTERNATIONAL CARGO AND SHIP CHARTERING, San Antonio, FL. More information available from US FCC via Universal Licensing System and Coast Guard Vessel Documentation Center.

Last reported at 2017-Sep-24 19:29 UTC. Time now 2017-Sep-24 19:37 UTC.
Position N 27°51' W 082°24'.

Length 158 m; draft 9.2 m.

MMSI: 303606000.

Date/timePositionNaut miles runAvg speedWind from/ knotsBaromVisibWave heightAir tempDewpointWater temp
2017-Sep-24 19:29N 27°51' W 082°24'0 0.0
2017-Sep-24 18:59N 27°51' W 082°24'0 0.0
2017-Sep-24 18:29N 27°51' W 082°24'0 0.0
2017-Sep-24 17:59N 27°51' W 082°24'0 0.0
2017-Sep-24 17:29N 27°51' W 082°24'0 0.0
2017-Sep-24 16:59N 27°51' W 082°24'0 0.0
2017-Sep-24 16:29N 27°51' W 082°24'0 0.0
2017-Sep-24 15:59N 27°51' W 082°24'0 0.0
2017-Sep-24 15:29N 27°51' W 082°24'0 0.0
2017-Sep-24 14:59N 27°51' W 082°24'0 0.0
2017-Sep-24 14:29N 27°51' W 082°24'0 0.0
2017-Sep-24 13:59N 27°51' W 082°24'0 0.0
2017-Sep-24 13:29N 27°51' W 082°24'0 0.0
2017-Sep-24 12:59N 27°51' W 082°24'0 0.0
2017-Sep-24 12:29N 27°51' W 082°24'0 0.0
2017-Sep-24 11:59N 27°51' W 082°24'0 0.0
2017-Sep-24 11:29N 27°51' W 082°24'0 0.0
2017-Sep-24 10:59N 27°51' W 082°24'0 0.0
2017-Sep-24 10:29N 27°51' W 082°24'0 0.0
2017-Sep-24 09:59N 27°51' W 082°24'0 0.0
2017-Sep-24 09:29N 27°51' W 082°24'0 0.0
2017-Sep-24 08:59N 27°51' W 082°24'0 0.0
2017-Sep-24 08:29N 27°51' W 082°24'0 0.0
2017-Sep-24 07:59N 27°51' W 082°24'0 0.0
2017-Sep-24 07:29N 27°51' W 082°24'0 0.0
2017-Sep-24 06:59N 27°51' W 082°24'0 0.0
2017-Sep-24 06:29N 27°51' W 082°24'0 0.0
2017-Sep-24 05:59N 27°51' W 082°24'0 0.0
2017-Sep-24 05:29N 27°51' W 082°24'0 0.0
2017-Sep-24 04:59N 27°51' W 082°24'0 0.0
2017-Sep-24 04:29N 27°51' W 082°24'0 0.0
2017-Sep-24 03:59N 27°51' W 082°24'0 0.0
2017-Sep-24 03:28N 27°51' W 082°24'0 0.0
2017-Sep-24 02:58N 27°51' W 082°24'0 0.0
2017-Sep-24 02:28N 27°51' W 082°24'0 0.0
2017-Sep-24 01:58N 27°51' W 082°24'0 0.0
2017-Sep-24 01:28N 27°51' W 082°24'0 0.0
2017-Sep-24 00:58N 27°51' W 082°24'0 0.0
2017-Sep-24 00:28N 27°51' W 082°24'0 0.0
2017-Sep-23 23:58N 27°51' W 082°24'0 0.0
2017-Sep-23 23:28N 27°51' W 082°24'0 0.0
2017-Sep-23 22:58N 27°51' W 082°24'0 0.0
2017-Sep-23 22:28N 27°51' W 082°24'0 0.0
2017-Sep-23 21:58N 27°51' W 082°24'0 0.0
2017-Sep-23 21:28N 27°51' W 082°24'0 0.0
2017-Sep-23 21:00N 27°51' W 082°24'1 2.2
2017-Sep-23 20:30N 27°51' W 082°25'2 4.8
2017-Sep-23 20:00N 27°50' W 082°27'  
2017-Sep-16 12:24N 27°42' W 082°33'4 9.0
2017-Sep-16 12:00N 27°45' W 082°32'4 8.0
2017-Sep-16 11:30N 27°48' W 082°29'4 8.5
2017-Sep-16 11:00N 27°52' W 082°27'3 5.1
2017-Sep-16 10:30N 27°54' W 082°26'1 1.5
2017-Sep-16 10:00N 27°54' W 082°25'0 0.3
2017-Sep-16 09:30N 27°54' W 082°25'0 0.0
2017-Sep-16 08:58N 27°54' W 082°25'0 0.0
2017-Sep-16 08:28N 27°54' W 082°25'0 0.0
2017-Sep-16 07:58N 27°54' W 082°25'0 0.0
2017-Sep-16 07:28N 27°54' W 082°25'0 0.0
2017-Sep-16 06:58N 27°54' W 082°25'0 0.0
2017-Sep-16 06:25N 27°54' W 082°25'0 0.0
2017-Sep-16 05:58N 27°54' W 082°25'0 0.0
2017-Sep-16 05:28N 27°54' W 082°25'0 0.0
2017-Sep-16 04:58N 27°54' W 082°25'0 0.0
2017-Sep-16 04:25N 27°54' W 082°25'0 0.0
2017-Sep-16 03:55N 27°54' W 082°25'0 0.0
2017-Sep-16 03:28N 27°54' W 082°25'0 0.0
2017-Sep-16 02:58N 27°54' W 082°25'0 0.0
2017-Sep-16 02:28N 27°54' W 082°25'0 0.0
2017-Sep-16 01:58N 27°54' W 082°25'0 0.0
2017-Sep-16 01:28N 27°54' W 082°25'0 0.0
2017-Sep-16 00:58N 27°54' W 082°25'0 0.0
2017-Sep-16 00:28N 27°54' W 082°25'0 0.0
2017-Sep-15 23:58N 27°54' W 082°25'0 0.0
2017-Sep-15 23:28N 27°54' W 082°25'0 0.0
2017-Sep-15 22:58N 27°54' W 082°25'0 0.0
2017-Sep-15 22:28N 27°54' W 082°25'0 0.0
2017-Sep-15 21:58N 27°54' W 082°25'0 0.0
2017-Sep-15 21:28N 27°54' W 082°25'0 0.0
2017-Sep-15 20:58N 27°54' W 082°25'0 0.0
2017-Sep-15 20:28N 27°54' W 082°25'0 0.0
2017-Sep-15 19:58N 27°54' W 082°25'0 0.0
2017-Sep-15 19:28N 27°54' W 082°25'0 0.0
2017-Sep-15 18:58N 27°54' W 082°25'0 0.0
2017-Sep-15 18:28N 27°54' W 082°25'0 0.0
2017-Sep-15 17:58N 27°54' W 082°25'0 0.0
2017-Sep-15 17:28N 27°54' W 082°25'0 0.0
2017-Sep-15 16:58N 27°54' W 082°25'0 0.3
2017-Sep-15 16:30N 27°54' W 082°25'2 4.4
2017-Sep-15 16:00N 27°53' W 082°26'4 8.0
2017-Sep-15 15:30N 27°49' W 082°27'4 7.9
2017-Sep-15 14:59N 27°47' W 082°31'  
Track history (hours):
 
Tides and Currents Weather Stations Pressure Air Temp Water Temp Dewpoint Dewpoint Depression Visibility Wind Speed Wind Dir Waves Ship Positions

Kelly

Owner: INTERNATIONAL CARGO AND SHIP CHARTERING, San Antonio, FL. More information available from US FCC via Universal Licensing System and Coast Guard Vessel Documentation Center.

Last reported at 2017-Sep-24 19:29 UTC. Time now 2017-Sep-24 19:37 UTC.
Position N 27°51' W 082°24'.

Length 158 m; draft 9.2 m.

MMSI: 303606000.

Date/timePositionNaut miles runAvg speedWind from/ knotsBaromVisibWave heightAir tempDewpointWater temp
2017-Sep-24 19:29N 27°51' W 082°24'0 0.0
2017-Sep-24 18:59N 27°51' W 082°24'0 0.0
2017-Sep-24 18:29N 27°51' W 082°24'0 0.0
2017-Sep-24 17:59N 27°51' W 082°24'0 0.0
2017-Sep-24 17:29N 27°51' W 082°24'0 0.0
2017-Sep-24 16:59N 27°51' W 082°24'0 0.0
2017-Sep-24 16:29N 27°51' W 082°24'0 0.0
2017-Sep-24 15:59N 27°51' W 082°24'0 0.0
2017-Sep-24 15:29N 27°51' W 082°24'0 0.0
2017-Sep-24 14:59N 27°51' W 082°24'0 0.0
2017-Sep-24 14:29N 27°51' W 082°24'0 0.0
2017-Sep-24 13:59N 27°51' W 082°24'0 0.0
2017-Sep-24 13:29N 27°51' W 082°24'0 0.0
2017-Sep-24 12:59N 27°51' W 082°24'0 0.0
2017-Sep-24 12:29N 27°51' W 082°24'0 0.0
2017-Sep-24 11:59N 27°51' W 082°24'0 0.0
2017-Sep-24 11:29N 27°51' W 082°24'0 0.0
2017-Sep-24 10:59N 27°51' W 082°24'0 0.0
2017-Sep-24 10:29N 27°51' W 082°24'0 0.0
2017-Sep-24 09:59N 27°51' W 082°24'0 0.0
2017-Sep-24 09:29N 27°51' W 082°24'0 0.0
2017-Sep-24 08:59N 27°51' W 082°24'0 0.0
2017-Sep-24 08:29N 27°51' W 082°24'0 0.0
2017-Sep-24 07:59N 27°51' W 082°24'0 0.0
2017-Sep-24 07:29N 27°51' W 082°24'0 0.0
2017-Sep-24 06:59N 27°51' W 082°24'0 0.0
2017-Sep-24 06:29N 27°51' W 082°24'0 0.0
2017-Sep-24 05:59N 27°51' W 082°24'0 0.0
2017-Sep-24 05:29N 27°51' W 082°24'0 0.0
2017-Sep-24 04:59N 27°51' W 082°24'0 0.0
2017-Sep-24 04:29N 27°51' W 082°24'0 0.0
2017-Sep-24 03:59N 27°51' W 082°24'0 0.0
2017-Sep-24 03:28N 27°51' W 082°24'0 0.0
2017-Sep-24 02:58N 27°51' W 082°24'0 0.0
2017-Sep-24 02:28N 27°51' W 082°24'0 0.0
2017-Sep-24 01:58N 27°51' W 082°24'0 0.0
2017-Sep-24 01:28N 27°51' W 082°24'0 0.0
2017-Sep-24 00:58N 27°51' W 082°24'0 0.0
2017-Sep-24 00:28N 27°51' W 082°24'0 0.0
2017-Sep-23 23:58N 27°51' W 082°24'0 0.0
2017-Sep-23 23:28N 27°51' W 082°24'0 0.0
2017-Sep-23 22:58N 27°51' W 082°24'0 0.0
2017-Sep-23 22:28N 27°51' W 082°24'0 0.0
2017-Sep-23 21:58N 27°51' W 082°24'0 0.0
2017-Sep-23 21:28N 27°51' W 082°24'0 0.0
2017-Sep-23 21:00N 27°51' W 082°24'1 2.2
2017-Sep-23 20:30N 27°51' W 082°25'2 4.8
2017-Sep-23 20:00N 27°50' W 082°27'  
2017-Sep-16 12:24N 27°42' W 082°33'4 9.0
2017-Sep-16 12:00N 27°45' W 082°32'4 8.0
2017-Sep-16 11:30N 27°48' W 082°29'4 8.5
2017-Sep-16 11:00N 27°52' W 082°27'3 5.1
2017-Sep-16 10:30N 27°54' W 082°26'1 1.5
2017-Sep-16 10:00N 27°54' W 082°25'0 0.3
2017-Sep-16 09:30N 27°54' W 082°25'0 0.0
2017-Sep-16 08:58N 27°54' W 082°25'0 0.0
2017-Sep-16 08:28N 27°54' W 082°25'0 0.0
2017-Sep-16 07:58N 27°54' W 082°25'0 0.0
2017-Sep-16 07:28N 27°54' W 082°25'0 0.0
2017-Sep-16 06:58N 27°54' W 082°25'0 0.0
2017-Sep-16 06:25N 27°54' W 082°25'0 0.0
2017-Sep-16 05:58N 27°54' W 082°25'0 0.0
2017-Sep-16 05:28N 27°54' W 082°25'0 0.0
2017-Sep-16 04:58N 27°54' W 082°25'0 0.0
2017-Sep-16 04:25N 27°54' W 082°25'0 0.0
2017-Sep-16 03:55N 27°54' W 082°25'0 0.0
2017-Sep-16 03:28N 27°54' W 082°25'0 0.0
2017-Sep-16 02:58N 27°54' W 082°25'0 0.0
2017-Sep-16 02:28N 27°54' W 082°25'0 0.0
2017-Sep-16 01:58N 27°54' W 082°25'0 0.0
2017-Sep-16 01:28N 27°54' W 082°25'0 0.0
2017-Sep-16 00:58N 27°54' W 082°25'0 0.0
2017-Sep-16 00:28N 27°54' W 082°25'0 0.0
2017-Sep-15 23:58N 27°54' W 082°25'0 0.0
2017-Sep-15 23:28N 27°54' W 082°25'0 0.0
2017-Sep-15 22:58N 27°54' W 082°25'0 0.0
2017-Sep-15 22:28N 27°54' W 082°25'0 0.0
2017-Sep-15 21:58N 27°54' W 082°25'0 0.0
2017-Sep-15 21:28N 27°54' W 082°25'0 0.0
2017-Sep-15 20:58N 27°54' W 082°25'0 0.0
2017-Sep-15 20:28N 27°54' W 082°25'0 0.0
2017-Sep-15 19:58N 27°54' W 082°25'0 0.0
2017-Sep-15 19:28N 27°54' W 082°25'0 0.0
2017-Sep-15 18:58N 27°54' W 082°25'0 0.0
2017-Sep-15 18:28N 27°54' W 082°25'0 0.0
2017-Sep-15 17:58N 27°54' W 082°25'0 0.0
2017-Sep-15 17:28N 27°54' W 082°25'0 0.0
2017-Sep-15 16:58N 27°54' W 082°25'0 0.3
2017-Sep-15 16:30N 27°54' W 082°25'2 4.4
2017-Sep-15 16:00N 27°53' W 082°26'4 8.0
2017-Sep-15 15:30N 27°49' W 082°27'4 7.9
2017-Sep-15 14:59N 27°47' W 082°31'  

Dump ship's entire track history